Ayrshire, United Kingdom
Current Conditions -  °F | °C
As of 11:20 PM on Monday 22 Dec 2014 (Local Time) from EGPK Reporting Station
Light Rain Light Rain  
Wind Chill:   Ceiling: 2400
Heat Index:   Visibility: 5mi
Dew Point:   Wind: 14mph
Humidity: 87%   Direction: 250°WSW
Pressure: 29.68"   Gusts: NA
Location:  55.39°N, 4.46°W
Report Text: EGPK 222320Z 25012KT 8000 -RA FEW010 SCT015 BKN024 08/06 Q1005
Loading
Personal Weather Stations






























Interactive Weather Map New forecast layout! Learn more

10-Day Weather Forecast

Advertisements
Track Severe Weather on mobile